createdAt,value
2019-02-09T00:01:10.402Z,99.90
2019-02-09T00:03:39.604Z,99.90
2019-02-09T00:06:08.915Z,99.90
2019-02-09T00:08:38.111Z,99.90
2019-02-09T00:11:07.741Z,99.90
2019-02-09T00:13:36.950Z,99.90
2019-02-09T00:16:06.898Z,99.90
2019-02-09T00:18:36.185Z,99.90
2019-02-09T00:21:05.836Z,99.90
2019-02-09T00:23:35.156Z,99.90
2019-02-09T00:26:04.361Z,99.90
2019-02-09T00:28:33.654Z,99.90
2019-02-09T00:31:02.867Z,99.90
2019-02-09T00:33:32.101Z,99.90
2019-02-09T00:36:01.298Z,99.90
2019-02-09T00:38:30.488Z,99.90
2019-02-09T00:40:59.729Z,99.90
2019-02-09T00:43:28.973Z,99.90
2019-02-09T00:45:58.206Z,99.90
2019-02-09T00:48:27.404Z,99.90
2019-02-09T00:50:56.638Z,99.90
2019-02-09T00:53:25.833Z,99.90
2019-02-09T00:55:55.088Z,99.90
2019-02-09T00:58:24.232Z,99.90
2019-02-09T01:00:53.493Z,99.90
2019-02-09T01:03:22.792Z,99.90
2019-02-09T01:05:51.988Z,99.90
2019-02-09T01:08:21.230Z,99.90
2019-02-09T01:10:50.436Z,99.90
2019-02-09T01:13:19.640Z,99.90
2019-02-09T01:15:48.904Z,99.90
2019-02-09T01:18:18.110Z,99.90
2019-02-09T01:20:47.313Z,99.90
2019-02-09T01:23:16.665Z,99.90
2019-02-09T01:25:45.974Z,99.90
2019-02-09T01:28:15.176Z,99.90
2019-02-09T01:30:44.396Z,99.90
2019-02-09T01:33:13.632Z,99.90
2019-02-09T01:35:42.829Z,99.90
2019-02-09T01:38:12.074Z,99.90
2019-02-09T01:40:41.284Z,99.90
2019-02-09T01:43:10.476Z,99.90
2019-02-09T01:45:39.707Z,99.90
2019-02-09T01:48:08.960Z,99.90
2019-02-09T01:50:38.162Z,99.90
2019-02-09T01:53:07.353Z,99.90
2019-02-09T01:55:36.592Z,99.90
2019-02-09T01:58:06.096Z,99.90
2019-02-09T02:00:36.253Z,99.90
2019-02-09T02:03:05.775Z,99.90
2019-02-09T02:05:35.020Z,99.90
2019-02-09T02:08:04.789Z,99.90
2019-02-09T02:10:38.444Z,99.90
2019-02-09T02:13:09.152Z,99.90
2019-02-09T02:15:39.345Z,99.90
2019-02-09T02:18:09.560Z,99.90
2019-02-09T02:20:39.101Z,99.90
2019-02-09T02:23:08.257Z,99.90
2019-02-09T02:25:37.449Z,99.90
2019-02-09T02:28:06.694Z,99.90
2019-02-09T02:30:37.236Z,99.90
2019-02-09T02:33:07.204Z,99.90
2019-02-09T02:35:36.956Z,99.90
2019-02-09T02:38:06.215Z,99.90
2019-02-09T02:40:35.401Z,99.90
2019-02-09T02:43:05.045Z,99.90
2019-02-09T02:45:34.235Z,99.90
2019-02-09T02:48:03.612Z,99.90
2019-02-09T02:50:32.852Z,99.90
2019-02-09T02:53:02.068Z,99.90
2019-02-09T02:55:31.317Z,99.90
2019-02-09T02:58:00.553Z,99.90
2019-02-09T03:00:33.031Z,99.90
2019-02-09T03:03:02.204Z,99.90
2019-02-09T03:05:31.533Z,99.90
2019-02-09T03:08:01.015Z,99.90
2019-02-09T03:10:30.179Z,99.90
2019-02-09T03:12:59.363Z,99.90
2019-02-09T03:15:29.816Z,99.90
2019-02-09T03:17:59.362Z,99.90
2019-02-09T03:20:28.685Z,99.90
2019-02-09T03:22:58.151Z,99.90
2019-02-09T03:25:29.427Z,99.90
2019-02-09T03:27:58.613Z,99.90
2019-02-09T03:30:28.366Z,99.90
2019-02-09T03:32:57.616Z,99.90
2019-02-09T03:35:26.936Z,99.90
2019-02-09T03:37:56.154Z,99.90
2019-02-09T03:40:25.954Z,99.90
2019-02-09T03:42:55.424Z,99.90
2019-02-09T03:45:26.706Z,99.90
2019-02-09T03:47:55.939Z,99.90
2019-02-09T03:50:27.052Z,99.90
2019-02-09T03:52:56.244Z,99.90
2019-02-09T03:55:25.452Z,99.90
2019-02-09T03:57:54.668Z,99.90
2019-02-09T04:00:25.470Z,99.90
2019-02-09T04:02:54.922Z,99.90
2019-02-09T04:05:24.124Z,99.90
2019-02-09T04:07:53.855Z,99.90
2019-02-09T04:10:24.257Z,99.90
2019-02-09T04:12:53.732Z,99.90
2019-02-09T04:15:24.313Z,99.90
2019-02-09T04:17:53.883Z,99.90
2019-02-09T04:20:23.490Z,99.90
2019-02-09T04:22:52.680Z,99.90
2019-02-09T04:25:21.950Z,99.90
2019-02-09T04:27:51.125Z,99.90
2019-02-09T04:30:24.983Z,99.90
2019-02-09T04:32:54.713Z,99.90
2019-02-09T04:35:23.904Z,99.90
2019-02-09T04:37:53.327Z,99.90
2019-02-09T04:40:24.941Z,99.90
2019-02-09T04:42:54.165Z,99.90
2019-02-09T04:45:23.760Z,99.90
2019-02-09T04:47:52.954Z,99.90
2019-02-09T04:50:22.161Z,99.90
2019-02-09T04:52:51.372Z,99.90
2019-02-09T04:55:22.046Z,99.90
2019-02-09T04:57:51.307Z,99.90
2019-02-09T05:00:22.636Z,99.90
2019-02-09T05:02:51.924Z,99.90
2019-02-09T05:05:21.221Z,99.90
2019-02-09T05:07:50.423Z,99.90
2019-02-09T05:10:20.116Z,99.90
2019-02-09T05:12:49.314Z,99.90
2019-02-09T05:15:18.720Z,99.90
2019-02-09T05:17:47.916Z,99.90
2019-02-09T05:20:18.869Z,99.90
2019-02-09T05:22:48.059Z,99.90
2019-02-09T05:25:17.600Z,99.90
2019-02-09T05:27:47.208Z,99.90
2019-02-09T05:30:27.535Z,99.90
2019-02-09T05:32:57.083Z,99.90
2019-02-09T05:35:26.467Z,99.90
2019-02-09T05:37:55.672Z,99.90
2019-02-09T05:40:25.121Z,99.90
2019-02-09T05:42:54.508Z,99.90
2019-02-09T05:45:25.652Z,99.90
2019-02-09T05:47:54.845Z,99.90
2019-02-09T05:50:24.059Z,99.90
2019-02-09T05:52:53.266Z,99.90
2019-02-09T05:55:22.557Z,99.90
2019-02-09T05:57:51.723Z,99.90
2019-02-09T06:00:31.775Z,99.90
2019-02-09T06:03:00.975Z,99.90
2019-02-09T06:05:30.196Z,99.90
2019-02-09T06:07:59.364Z,99.90
2019-02-09T06:10:28.684Z,99.90
2019-02-09T06:12:57.874Z,99.90
2019-02-09T06:15:27.332Z,99.90
2019-02-09T06:17:56.532Z,99.90
2019-02-09T06:20:26.484Z,99.90
2019-02-09T06:22:55.996Z,99.90
2019-02-09T06:25:25.501Z,99.90
2019-02-09T06:27:55.010Z,99.90
2019-02-09T06:30:28.909Z,99.90
2019-02-09T06:32:58.239Z,99.90
2019-02-09T06:35:27.527Z,99.90
2019-02-09T06:37:56.928Z,99.90
2019-02-09T06:40:26.531Z,99.90
2019-02-09T06:42:55.755Z,99.90
2019-02-09T06:45:25.016Z,99.90
2019-02-09T06:47:55.703Z,99.90
2019-02-09T06:50:29.820Z,99.90
2019-02-09T06:52:59.120Z,99.90
2019-02-09T06:55:28.339Z,99.90
2019-02-09T06:57:57.512Z,99.90
2019-02-09T07:00:26.728Z,99.90
2019-02-09T07:02:55.905Z,99.90
2019-02-09T07:05:25.091Z,99.90
2019-02-09T07:07:54.403Z,99.90
2019-02-09T07:10:24.411Z,99.90
2019-02-09T07:12:54.134Z,99.90
2019-02-09T07:15:25.331Z,99.90
2019-02-09T07:17:54.638Z,99.90
2019-02-09T07:20:24.172Z,99.90
2019-02-09T07:22:53.757Z,99.90
2019-02-09T07:25:23.594Z,99.90
2019-02-09T07:27:52.888Z,99.90
2019-02-09T07:30:24.175Z,99.90
2019-02-09T07:32:53.671Z,99.90
2019-02-09T07:35:22.877Z,99.90
2019-02-09T07:37:52.096Z,99.90
2019-02-09T07:40:22.180Z,99.90
2019-02-09T07:42:51.358Z,99.90
2019-02-09T07:45:22.520Z,99.90
2019-02-09T07:47:51.836Z,99.90
2019-02-09T07:50:22.062Z,99.90
2019-02-09T07:52:51.260Z,99.90
2019-02-09T07:55:20.579Z,99.90
2019-02-09T07:57:49.791Z,99.90
2019-02-09T08:00:21.376Z,99.90
2019-02-09T08:02:50.670Z,99.90
2019-02-09T08:05:20.338Z,99.90
2019-02-09T08:07:49.512Z,99.90
2019-02-09T08:10:20.804Z,99.90
2019-02-09T08:12:50.097Z,99.90
2019-02-09T08:15:21.477Z,99.90
2019-02-09T08:17:50.688Z,99.90
2019-02-09T08:20:21.207Z,99.90
2019-02-09T08:22:50.488Z,99.90
2019-02-09T08:25:21.877Z,99.90
2019-02-09T08:27:51.159Z,99.90
2019-02-09T08:30:23.084Z,99.90
2019-02-09T08:32:52.326Z,99.90
2019-02-09T08:35:21.635Z,99.90
2019-02-09T08:37:50.833Z,99.90
2019-02-09T08:40:20.007Z,99.90
2019-02-09T08:42:49.235Z,99.90
2019-02-09T08:45:19.784Z,99.90
2019-02-09T08:47:49.100Z,99.90
2019-02-09T08:50:23.755Z,99.90
2019-02-09T08:52:52.968Z,99.90
2019-02-09T08:55:22.371Z,99.90
2019-02-09T08:57:51.663Z,99.90
2019-02-09T09:00:24.073Z,99.90
2019-02-09T09:02:53.361Z,99.90
2019-02-09T09:05:22.651Z,99.90
2019-02-09T09:07:51.836Z,99.90
2019-02-09T09:10:22.068Z,99.90
2019-02-09T09:12:51.413Z,99.90
2019-02-09T09:15:23.654Z,99.90
2019-02-09T09:17:52.840Z,99.90
2019-02-09T09:20:32.941Z,99.90
2019-02-09T09:23:02.157Z,99.90
2019-02-09T09:25:31.393Z,99.90
2019-02-09T09:28:00.531Z,99.90
2019-02-09T09:30:30.091Z,99.90
2019-02-09T09:32:59.252Z,99.90
2019-02-09T09:35:28.465Z,99.90
2019-02-09T09:37:57.672Z,98.60
2019-02-09T09:40:32.476Z,96.00
2019-02-09T09:43:01.671Z,94.60
2019-02-09T09:45:32.956Z,94.50
2019-02-09T09:48:02.173Z,93.60
2019-02-09T09:50:31.389Z,92.20
2019-02-09T09:53:00.587Z,92.70
2019-02-09T09:55:29.863Z,92.90
2019-02-09T09:57:59.167Z,94.20
2019-02-09T10:00:28.595Z,95.40
2019-02-09T10:02:57.795Z,96.20
2019-02-09T10:05:27.040Z,97.20
2019-02-09T10:07:56.236Z,97.20
2019-02-09T10:10:25.560Z,97.60
2019-02-09T10:12:54.769Z,98.50
2019-02-09T10:15:24.579Z,99.00
2019-02-09T10:17:53.758Z,99.40
2019-02-09T10:20:24.143Z,98.80
2019-02-09T10:22:53.556Z,99.40
2019-02-09T10:25:22.783Z,99.60
2019-02-09T10:27:52.980Z,98.90
2019-02-09T10:30:24.159Z,99.00
2019-02-09T10:32:53.768Z,98.20
2019-02-09T10:35:23.711Z,97.00
2019-02-09T10:37:52.933Z,95.80
2019-02-09T10:40:27.267Z,96.10
2019-02-09T10:42:58.817Z,94.50
2019-02-09T10:45:29.284Z,94.90
2019-02-09T10:47:59.603Z,94.60
2019-02-09T10:50:33.924Z,94.20
2019-02-09T10:53:03.113Z,94.40
2019-02-09T10:55:32.516Z,94.70
2019-02-09T10:58:01.814Z,94.50
2019-02-09T11:00:34.342Z,94.40
2019-02-09T11:03:03.663Z,94.60
2019-02-09T11:05:32.848Z,93.30
2019-02-09T11:08:02.056Z,93.60
2019-02-09T11:10:31.493Z,93.40
2019-02-09T11:13:00.728Z,91.60
2019-02-09T11:15:29.920Z,93.30
2019-02-09T11:17:59.148Z,93.60
2019-02-09T11:20:28.460Z,94.00
2019-02-09T11:22:57.783Z,93.10
2019-02-09T11:25:27.017Z,93.50
2019-02-09T11:27:56.243Z,94.10
2019-02-09T11:30:25.902Z,93.60
2019-02-09T11:33:01.571Z,92.80
2019-02-09T11:35:25.992Z,92.20
2019-02-09T11:37:55.276Z,92.30
2019-02-09T11:40:24.628Z,91.50
2019-02-09T11:42:54.321Z,92.20
2019-02-09T11:45:25.752Z,92.20
2019-02-09T11:47:54.931Z,93.10
2019-02-09T11:50:24.223Z,93.30
2019-02-09T11:52:53.800Z,92.60
2019-02-09T11:55:23.240Z,92.50
2019-02-09T11:57:52.467Z,92.40
2019-02-09T12:00:24.174Z,92.50
2019-02-09T12:02:53.681Z,93.00
2019-02-09T12:05:23.093Z,92.10
2019-02-09T12:07:52.296Z,92.00
2019-02-09T12:10:21.541Z,90.80
2019-02-09T12:12:50.735Z,91.20
2019-02-09T12:15:23.726Z,90.40
2019-02-09T12:17:53.110Z,89.40
2019-02-09T12:20:22.649Z,90.30
2019-02-09T12:22:51.884Z,91.40
2019-02-09T12:25:26.677Z,91.00
2019-02-09T12:27:55.861Z,91.10
2019-02-09T12:30:26.607Z,90.80
2019-02-09T12:32:55.801Z,91.50
2019-02-09T12:35:25.000Z,90.80
2019-02-09T12:37:54.188Z,90.40
2019-02-09T12:40:26.011Z,90.60
2019-02-09T12:42:55.215Z,89.10
2019-02-09T12:45:24.907Z,89.80
2019-02-09T12:47:54.327Z,89.80
2019-02-09T12:50:24.304Z,90.90
2019-02-09T12:52:53.604Z,90.40
2019-02-09T12:55:22.825Z,90.30
2019-02-09T12:57:52.031Z,90.30
2019-02-09T13:00:29.462Z,89.90
2019-02-09T13:02:59.960Z,89.50
2019-02-09T13:05:29.724Z,87.90
2019-02-09T13:07:58.916Z,89.10
2019-02-09T13:10:28.152Z,87.70
2019-02-09T13:12:57.356Z,88.10
2019-02-09T13:15:27.976Z,87.90
2019-02-09T13:17:57.151Z,86.40
2019-02-09T13:20:27.556Z,89.60
2019-02-09T13:22:57.452Z,89.30
2019-02-09T13:25:26.979Z,89.40
2019-02-09T13:27:56.517Z,89.00
2019-02-09T13:30:28.444Z,88.60
2019-02-09T13:32:57.971Z,86.90
2019-02-09T13:35:27.293Z,88.40
2019-02-09T13:37:56.483Z,86.30
2019-02-09T13:40:26.123Z,86.40
2019-02-09T13:42:55.318Z,87.10
2019-02-09T13:45:32.242Z,85.80
2019-02-09T13:48:01.421Z,87.80
2019-02-09T13:50:32.000Z,84.40
2019-02-09T13:53:01.213Z,85.10
2019-02-09T13:55:30.416Z,81.90
2019-02-09T13:57:59.602Z,82.90
2019-02-09T14:00:28.874Z,82.80
2019-02-09T14:02:58.769Z,83.50
2019-02-09T14:05:27.979Z,82.30
2019-02-09T14:07:57.146Z,83.20
2019-02-09T14:10:26.519Z,83.90
2019-02-09T14:12:56.124Z,83.20
2019-02-09T14:15:27.477Z,84.00
2019-02-09T14:17:57.630Z,85.10
2019-02-09T14:20:26.879Z,86.80
2019-02-09T14:22:56.126Z,87.70
2019-02-09T14:25:25.460Z,90.40
2019-02-09T14:27:57.963Z,88.90
2019-02-09T14:30:28.317Z,90.40
2019-02-09T14:32:58.106Z,93.20
2019-02-09T14:35:27.320Z,96.20
2019-02-09T14:37:56.611Z,98.10
2019-02-09T14:40:28.034Z,99.90
2019-02-09T14:42:57.204Z,99.90
2019-02-09T14:45:44.875Z,99.90
2019-02-09T14:48:14.060Z,99.90
2019-02-09T14:50:43.372Z,99.90
2019-02-09T14:53:12.785Z,99.90
2019-02-09T14:55:42.039Z,99.90
2019-02-09T14:58:11.313Z,99.90
2019-02-09T15:00:43.097Z,99.90
2019-02-09T15:03:12.934Z,99.90
2019-02-09T15:05:42.645Z,99.90
2019-02-09T15:08:11.916Z,99.90
2019-02-09T15:10:41.135Z,99.90
2019-02-09T15:13:12.195Z,99.90
2019-02-09T15:15:57.692Z,99.90
2019-02-09T15:18:26.891Z,99.90
2019-02-09T15:20:58.728Z,99.90
2019-02-09T15:23:27.895Z,99.90
2019-02-09T15:25:57.115Z,99.90
2019-02-09T15:28:26.291Z,99.90
2019-02-09T15:30:55.512Z,99.90
2019-02-09T15:33:24.688Z,99.90
2019-02-09T15:35:53.914Z,99.90
2019-02-09T15:38:23.163Z,99.90
2019-02-09T15:40:52.552Z,99.90
2019-02-09T15:43:21.741Z,99.90
2019-02-09T15:45:51.263Z,99.90
2019-02-09T15:48:20.467Z,99.90
2019-02-09T15:50:49.672Z,99.90
2019-02-09T15:53:18.907Z,99.90
2019-02-09T15:55:48.103Z,99.90
2019-02-09T15:58:17.303Z,99.90
2019-02-09T16:00:46.601Z,99.90
2019-02-09T16:03:15.781Z,99.90
2019-02-09T16:05:45.047Z,99.90
2019-02-09T16:08:14.263Z,99.90
2019-02-09T16:10:43.539Z,99.90
2019-02-09T16:13:12.844Z,99.90
2019-02-09T16:15:42.063Z,99.90
2019-02-09T16:18:11.365Z,99.90
2019-02-09T16:20:40.599Z,99.90
2019-02-09T16:23:10.000Z,99.90
2019-02-09T16:25:39.187Z,99.90
2019-02-09T16:28:08.435Z,99.90
2019-02-09T16:30:37.759Z,99.90
2019-02-09T16:33:07.007Z,99.90
2019-02-09T16:35:36.232Z,99.90
2019-02-09T16:38:06.289Z,99.90
2019-02-09T16:40:35.580Z,99.90
2019-02-09T16:43:05.875Z,99.90
2019-02-09T16:45:35.585Z,99.90
2019-02-09T16:48:05.972Z,99.90
2019-02-09T16:50:35.176Z,99.90
2019-02-09T16:53:04.507Z,99.90
2019-02-09T16:55:33.973Z,99.90
2019-02-09T16:58:03.271Z,99.90
2019-02-09T17:00:35.288Z,99.90
2019-02-09T17:03:05.156Z,99.90
2019-02-09T17:05:34.355Z,99.90
2019-02-09T17:08:03.567Z,99.90
2019-02-09T17:10:32.822Z,99.90
2019-02-09T17:13:02.014Z,99.90
2019-02-09T17:15:31.228Z,99.90
2019-02-09T17:18:00.425Z,99.90
2019-02-09T17:20:29.883Z,99.90
2019-02-09T17:22:59.193Z,99.90
2019-02-09T17:25:28.510Z,99.90
2019-02-09T17:27:57.736Z,99.90
2019-02-09T17:30:28.584Z,99.90
2019-02-09T17:32:57.885Z,99.90
2019-02-09T17:35:27.336Z,99.90
2019-02-09T17:37:56.837Z,99.90
2019-02-09T17:40:28.636Z,99.90
2019-02-09T17:42:57.881Z,99.90
2019-02-09T17:45:33.038Z,99.90
2019-02-09T17:48:02.274Z,99.90
2019-02-09T17:50:31.444Z,99.90
2019-02-09T17:53:00.645Z,99.90
2019-02-09T17:55:30.086Z,99.90
2019-02-09T17:57:59.320Z,99.90
2019-02-09T18:00:34.009Z,99.90
2019-02-09T18:03:03.198Z,99.90
2019-02-09T18:05:32.407Z,99.90
2019-02-09T18:08:01.584Z,99.90
2019-02-09T18:10:30.780Z,99.90
2019-02-09T18:13:00.002Z,99.90
2019-02-09T18:15:29.245Z,99.90
2019-02-09T18:17:58.419Z,99.90
2019-02-09T18:20:27.974Z,99.90
2019-02-09T18:22:57.252Z,99.90
2019-02-09T18:25:26.701Z,99.90
2019-02-09T18:27:55.896Z,99.90
2019-02-09T18:30:25.110Z,99.90
2019-02-09T18:32:54.420Z,99.90
2019-02-09T18:35:23.922Z,99.90
2019-02-09T18:37:53.119Z,99.90
2019-02-09T18:40:22.614Z,99.90
2019-02-09T18:42:51.864Z,99.90
2019-02-09T18:45:23.426Z,99.90
2019-02-09T18:47:52.648Z,99.90
2019-02-09T18:50:24.407Z,99.90
2019-02-09T18:52:54.371Z,99.90
2019-02-09T18:55:24.554Z,99.90
2019-02-09T18:57:54.060Z,99.90
2019-02-09T19:00:25.635Z,99.90
2019-02-09T19:02:55.011Z,99.90
2019-02-09T19:05:24.275Z,99.90
2019-02-09T19:07:53.475Z,99.90
2019-02-09T19:10:24.377Z,99.90
2019-02-09T19:12:53.636Z,99.90
2019-02-09T19:15:23.971Z,99.90
2019-02-09T19:17:53.574Z,99.90
2019-02-09T19:20:31.183Z,99.90
2019-02-09T19:23:00.580Z,99.90
2019-02-09T19:25:30.365Z,99.90
2019-02-09T19:27:59.567Z,99.90
2019-02-09T19:30:28.769Z,99.90
2019-02-09T19:32:57.981Z,99.90
2019-02-09T19:35:27.183Z,99.90
2019-02-09T19:37:56.396Z,99.90
2019-02-09T19:40:25.712Z,99.90
2019-02-09T19:42:55.067Z,99.90
2019-02-09T19:45:29.703Z,99.90
2019-02-09T19:47:58.911Z,99.90
2019-02-09T19:50:28.212Z,99.90
2019-02-09T19:52:57.398Z,99.90
2019-02-09T19:55:27.944Z,99.90
2019-02-09T19:57:57.248Z,99.90
2019-02-09T20:00:37.735Z,99.90
2019-02-09T20:03:07.795Z,99.90
2019-02-09T20:05:37.122Z,99.90
2019-02-09T20:08:07.103Z,99.90
2019-02-09T20:10:37.257Z,99.90
2019-02-09T20:13:07.655Z,99.90
2019-02-09T20:15:36.973Z,99.90
2019-02-09T20:18:07.541Z,99.90
2019-02-09T20:20:36.771Z,99.90
2019-02-09T20:23:06.247Z,99.90
2019-02-09T20:25:36.141Z,99.90
2019-02-09T20:28:06.472Z,99.90
2019-02-09T20:30:36.243Z,99.90
2019-02-09T20:33:06.417Z,99.90
2019-02-09T20:35:36.096Z,99.90
2019-02-09T20:38:05.886Z,99.90
2019-02-09T20:40:40.301Z,99.90
2019-02-09T20:43:10.923Z,99.90
2019-02-09T20:45:40.111Z,99.90
2019-02-09T20:48:09.307Z,99.90
2019-02-09T20:50:38.523Z,99.90
2019-02-09T20:53:08.252Z,99.90
2019-02-09T20:55:37.444Z,99.90
2019-02-09T20:58:08.659Z,99.90
2019-02-09T21:00:38.079Z,99.90
2019-02-09T21:03:07.284Z,99.90
2019-02-09T21:05:37.054Z,99.90
2019-02-09T21:08:07.194Z,99.90
2019-02-09T21:10:36.710Z,99.90
2019-02-09T21:13:06.601Z,99.90
2019-02-09T21:15:36.412Z,99.90
2019-02-09T21:18:08.004Z,99.90
2019-02-09T21:20:37.583Z,99.90
2019-02-09T21:23:07.222Z,99.90
2019-02-09T21:25:38.320Z,99.90
2019-02-09T21:28:07.571Z,99.90
2019-02-09T21:30:36.803Z,99.90
2019-02-09T21:33:06.423Z,99.90
2019-02-09T21:35:35.608Z,99.90
2019-02-09T21:38:04.891Z,99.90
2019-02-09T21:40:34.393Z,99.90
2019-02-09T21:43:03.604Z,99.90
2019-02-09T21:45:32.792Z,99.90
2019-02-09T21:48:02.123Z,99.90
2019-02-09T21:50:33.397Z,99.90
2019-02-09T21:53:02.607Z,99.90
2019-02-09T21:55:31.808Z,99.90
2019-02-09T21:58:01.010Z,99.90
2019-02-09T22:00:35.257Z,99.90
2019-02-09T22:03:05.708Z,99.90
2019-02-09T22:05:34.879Z,99.90
2019-02-09T22:08:05.656Z,99.90
2019-02-09T22:10:34.882Z,99.90
2019-02-09T22:13:04.146Z,99.90
2019-02-09T22:15:38.637Z,99.90
2019-02-09T22:18:04.361Z,99.90
2019-02-09T22:20:34.967Z,99.90
2019-02-09T22:23:04.268Z,99.90
2019-02-09T22:25:33.480Z,99.90
2019-02-09T22:28:02.772Z,99.90
2019-02-09T22:30:32.207Z,99.90
2019-02-09T22:33:01.502Z,99.90
2019-02-09T22:35:31.024Z,99.90
2019-02-09T22:38:00.169Z,99.90
2019-02-09T22:40:31.464Z,99.90
2019-02-09T22:43:00.667Z,99.90
2019-02-09T22:45:30.125Z,99.90
2019-02-09T22:47:59.353Z,99.90
2019-02-09T22:50:39.977Z,99.90
2019-02-09T22:53:09.170Z,99.90
2019-02-09T22:55:38.483Z,99.90
2019-02-09T22:58:07.915Z,99.90
2019-02-09T23:01:00.768Z,99.90
2019-02-09T23:03:43.186Z,99.90
2019-02-09T23:06:57.604Z,99.90
2019-02-09T23:09:28.924Z,99.90
2019-02-09T23:11:58.140Z,99.90
2019-02-09T23:14:27.324Z,99.90
2019-02-09T23:16:56.625Z,99.90
2019-02-09T23:19:25.827Z,99.90
2019-02-09T23:21:55.023Z,99.90
2019-02-09T23:24:24.243Z,99.90
2019-02-09T23:26:53.428Z,99.90
2019-02-09T23:29:22.624Z,99.90
2019-02-09T23:31:51.796Z,99.90
2019-02-09T23:34:21.023Z,99.90
2019-02-09T23:36:50.248Z,99.90
2019-02-09T23:39:19.463Z,99.90
2019-02-09T23:41:48.655Z,99.90
2019-02-09T23:44:17.827Z,99.90
2019-02-09T23:46:47.071Z,99.90
2019-02-09T23:49:16.279Z,99.90
2019-02-09T23:51:45.504Z,99.90
2019-02-09T23:54:14.699Z,99.90
2019-02-09T23:56:43.880Z,99.90
2019-02-09T23:59:13.087Z,99.90
